sensor_id;sensor_type;location;lat;lon;timestamp;P1;durP1;ratioP1;P2;durP2;ratioP2
2892;SDS011;1456;51.840;12.184;2023-01-09T00:00:25;0.77;;;0.73;;
2892;SDS011;1456;51.840;12.184;2023-01-09T00:02:52;0.30;;;0.23;;
2892;SDS011;1456;51.840;12.184;2023-01-09T00:05:17;0.40;;;0.40;;
2892;SDS011;1456;51.840;12.184;2023-01-09T00:07:43;0.33;;;0.33;;
2892;SDS011;1456;51.840;12.184;2023-01-09T00:10:12;0.43;;;0.43;;
2892;SDS011;1456;51.840;12.184;2023-01-09T00:12:39;0.53;;;0.50;;
2892;SDS011;1456;51.840;12.184;2023-01-09T00:15:05;0.30;;;0.20;;
2892;SDS011;1456;51.840;12.184;2023-01-09T00:17:32;0.40;;;0.40;;
2892;SDS011;1456;51.840;12.184;2023-01-09T00:19:57;0.43;;;0.43;;
2892;SDS011;1456;51.840;12.184;2023-01-09T00:22:23;0.50;;;0.50;;
2892;SDS011;1456;51.840;12.184;2023-01-09T00:24:49;0.30;;;0.20;;
2892;SDS011;1456;51.840;12.184;2023-01-09T00:27:15;0.93;;;0.50;;
2892;SDS011;1456;51.840;12.184;2023-01-09T00:29:41;1.30;;;1.30;;
2892;SDS011;1456;51.840;12.184;2023-01-09T00:32:09;0.80;;;0.80;;
2892;SDS011;1456;51.840;12.184;2023-01-09T00:34:39;0.40;;;0.37;;
2892;SDS011;1456;51.840;12.184;2023-01-09T00:37:06;0.40;;;0.40;;
2892;SDS011;1456;51.840;12.184;2023-01-09T00:39:39;0.50;;;0.50;;
2892;SDS011;1456;51.840;12.184;2023-01-09T00:42:05;0.40;;;0.40;;
2892;SDS011;1456;51.840;12.184;2023-01-09T00:44:35;0.50;;;0.50;;
2892;SDS011;1456;51.840;12.184;2023-01-09T00:47:11;1.47;;;0.33;;
2892;SDS011;1456;51.840;12.184;2023-01-09T00:49:40;1.33;;;0.80;;
2892;SDS011;1456;51.840;12.184;2023-01-09T00:52:06;0.40;;;0.40;;
2892;SDS011;1456;51.840;12.184;2023-01-09T00:54:35;0.30;;;0.30;;
2892;SDS011;1456;51.840;12.184;2023-01-09T00:57:02;0.50;;;0.37;;
2892;SDS011;1456;51.840;12.184;2023-01-09T00:59:28;0.40;;;0.40;;
2892;SDS011;1456;51.840;12.184;2023-01-09T01:01:54;0.30;;;0.30;;
2892;SDS011;1456;51.840;12.184;2023-01-09T01:04:19;0.53;;;0.53;;
2892;SDS011;1456;51.840;12.184;2023-01-09T01:07:04;1.73;;;1.53;;
2892;SDS011;1456;51.840;12.184;2023-01-09T01:09:48;0.73;;;0.73;;
2892;SDS011;1456;51.840;12.184;2023-01-09T01:12:13;3.10;;;2.83;;
2892;SDS011;1456;51.840;12.184;2023-01-09T01:14:39;1.87;;;1.00;;
2892;SDS011;1456;51.840;12.184;2023-01-09T01:17:05;1.17;;;1.07;;
2892;SDS011;1456;51.840;12.184;2023-01-09T01:19:32;1.10;;;0.50;;
2892;SDS011;1456;51.840;12.184;2023-01-09T01:21:59;0.50;;;0.50;;
2892;SDS011;1456;51.840;12.184;2023-01-09T01:24:25;0.50;;;0.50;;
2892;SDS011;1456;51.840;12.184;2023-01-09T01:26:52;0.70;;;0.70;;
2892;SDS011;1456;51.840;12.184;2023-01-09T01:29:18;0.40;;;0.40;;
2892;SDS011;1456;51.840;12.184;2023-01-09T01:31:43;0.50;;;0.40;;
2892;SDS011;1456;51.840;12.184;2023-01-09T01:34:09;0.97;;;0.97;;
2892;SDS011;1456;51.840;12.184;2023-01-09T01:36:35;0.87;;;0.87;;
2892;SDS011;1456;51.840;12.184;2023-01-09T01:39:00;0.40;;;0.40;;
2892;SDS011;1456;51.840;12.184;2023-01-09T01:41:26;0.50;;;0.50;;
2892;SDS011;1456;51.840;12.184;2023-01-09T01:46:20;0.50;;;0.50;;
2892;SDS011;1456;51.840;12.184;2023-01-09T01:48:47;1.50;;;1.40;;
2892;SDS011;1456;51.840;12.184;2023-01-09T01:51:18;0.50;;;0.50;;
2892;SDS011;1456;51.840;12.184;2023-01-09T01:53:50;0.73;;;0.50;;
2892;SDS011;1456;51.840;12.184;2023-01-09T01:56:28;0.70;;;0.70;;
2892;SDS011;1456;51.840;12.184;2023-01-09T02:01:43;0.40;;;0.40;;
2892;SDS011;1456;51.840;12.184;2023-01-09T02:04:12;0.70;;;0.70;;
2892;SDS011;1456;51.840;12.184;2023-01-09T02:06:38;0.40;;;0.40;;
2892;SDS011;1456;51.840;12.184;2023-01-09T02:09:07;0.50;;;0.40;;
2892;SDS011;1456;51.840;12.184;2023-01-09T02:11:42;1.33;;;1.23;;
2892;SDS011;1456;51.840;12.184;2023-01-09T02:14:09;0.30;;;0.30;;
2892;SDS011;1456;51.840;12.184;2023-01-09T02:35:34;0.70;;;0.70;;
2892;SDS011;1456;51.840;12.184;2023-01-09T02:38:18;1.37;;;1.17;;
2892;SDS011;1456;51.840;12.184;2023-01-09T02:41:43;1.27;;;1.00;;
2892;SDS011;1456;51.840;12.184;2023-01-09T02:44:11;1.73;;;1.63;;
2892;SDS011;1456;51.840;12.184;2023-01-09T02:46:39;0.30;;;0.30;;
2892;SDS011;1456;51.840;12.184;2023-01-09T02:49:04;1.30;;;0.57;;
2892;SDS011;1456;51.840;12.184;2023-01-09T02:51:36;0.77;;;0.77;;
2892;SDS011;1456;51.840;12.184;2023-01-09T02:59:46;0.60;;;0.60;;
2892;SDS011;1456;51.840;12.184;2023-01-09T03:05:21;0.70;;;0.70;;
2892;SDS011;1456;51.840;12.184;2023-01-09T03:08:07;0.93;;;0.93;;
2892;SDS011;1456;51.840;12.184;2023-01-09T03:10:44;0.83;;;0.83;;
2892;SDS011;1456;51.840;12.184;2023-01-09T03:13:23;0.40;;;0.40;;
2892;SDS011;1456;51.840;12.184;2023-01-09T03:15:51;0.87;;;0.40;;
2892;SDS011;1456;51.840;12.184;2023-01-09T03:18:19;0.80;;;0.80;;
2892;SDS011;1456;51.840;12.184;2023-01-09T03:20:49;4.87;;;0.77;;
2892;SDS011;1456;51.840;12.184;2023-01-09T03:23:16;0.30;;;0.30;;
2892;SDS011;1456;51.840;12.184;2023-01-09T03:25:42;0.40;;;0.40;;
2892;SDS011;1456;51.840;12.184;2023-01-09T03:28:20;6.80;;;1.70;;
2892;SDS011;1456;51.840;12.184;2023-01-09T03:30:51;0.50;;;0.33;;
2892;SDS011;1456;51.840;12.184;2023-01-09T03:33:17;0.40;;;0.40;;
2892;SDS011;1456;51.840;12.184;2023-01-09T03:35:43;0.30;;;0.30;;
2892;SDS011;1456;51.840;12.184;2023-01-09T03:38:10;0.47;;;0.47;;
2892;SDS011;1456;51.840;12.184;2023-01-09T03:40:36;2.20;;;0.53;;
2892;SDS011;1456;51.840;12.184;2023-01-09T03:43:02;1.07;;;0.77;;
2892;SDS011;1456;51.840;12.184;2023-01-09T03:45:28;1.50;;;1.40;;
2892;SDS011;1456;51.840;12.184;2023-01-09T03:47:53;0.53;;;0.53;;
2892;SDS011;1456;51.840;12.184;2023-01-09T03:50:21;1.57;;;1.27;;
2892;SDS011;1456;51.840;12.184;2023-01-09T03:52:46;1.43;;;1.33;;
2892;SDS011;1456;51.840;12.184;2023-01-09T03:55:12;5.03;;;4.70;;
2892;SDS011;1456;51.840;12.184;2023-01-09T03:57:39;1.43;;;1.43;;
2892;SDS011;1456;51.840;12.184;2023-01-09T04:00:05;1.27;;;1.17;;
2892;SDS011;1456;51.840;12.184;2023-01-09T04:02:32;1.97;;;1.87;;
2892;SDS011;1456;51.840;12.184;2023-01-09T04:04:59;1.07;;;1.07;;
2892;SDS011;1456;51.840;12.184;2023-01-09T04:07:24;1.63;;;0.57;;
2892;SDS011;1456;51.840;12.184;2023-01-09T04:09:51;0.30;;;0.30;;
2892;SDS011;1456;51.840;12.184;2023-01-09T04:12:16;0.30;;;0.23;;
2892;SDS011;1456;51.840;12.184;2023-01-09T04:14:42;0.30;;;0.30;;
2892;SDS011;1456;51.840;12.184;2023-01-09T04:17:08;0.50;;;0.50;;
2892;SDS011;1456;51.840;12.184;2023-01-09T04:19:33;0.60;;;0.60;;
2892;SDS011;1456;51.840;12.184;2023-01-09T04:21:59;0.57;;;0.57;;
2892;SDS011;1456;51.840;12.184;2023-01-09T04:24:25;0.30;;;0.27;;
2892;SDS011;1456;51.840;12.184;2023-01-09T04:26:51;0.60;;;0.60;;
2892;SDS011;1456;51.840;12.184;2023-01-09T04:29:18;0.87;;;0.47;;
2892;SDS011;1456;51.840;12.184;2023-01-09T04:31:44;0.30;;;0.30;;
2892;SDS011;1456;51.840;12.184;2023-01-09T04:34:10;0.30;;;0.30;;
2892;SDS011;1456;51.840;12.184;2023-01-09T04:36:37;0.53;;;0.53;;
2892;SDS011;1456;51.840;12.184;2023-01-09T04:39:03;0.40;;;0.40;;
2892;SDS011;1456;51.840;12.184;2023-01-09T04:41:29;0.70;;;0.70;;
2892;SDS011;1456;51.840;12.184;2023-01-09T04:44:24;0.30;;;0.30;;
2892;SDS011;1456;51.840;12.184;2023-01-09T04:46:54;0.40;;;0.40;;
2892;SDS011;1456;51.840;12.184;2023-01-09T04:49:20;0.30;;;0.23;;
2892;SDS011;1456;51.840;12.184;2023-01-09T04:51:47;2.20;;;2.10;;
2892;SDS011;1456;51.840;12.184;2023-01-09T04:54:13;0.50;;;0.50;;
2892;SDS011;1456;51.840;12.184;2023-01-09T04:56:39;0.30;;;0.30;;
2892;SDS011;1456;51.840;12.184;2023-01-09T04:59:05;0.60;;;0.60;;
2892;SDS011;1456;51.840;12.184;2023-01-09T05:01:32;1.23;;;1.03;;
2892;SDS011;1456;51.840;12.184;2023-01-09T05:03:58;1.47;;;1.37;;
2892;SDS011;1456;51.840;12.184;2023-01-09T05:06:24;0.63;;;0.50;;
2892;SDS011;1456;51.840;12.184;2023-01-09T05:08:51;6.27;;;3.33;;
2892;SDS011;1456;51.840;12.184;2023-01-09T05:11:17;1.63;;;1.53;;
2892;SDS011;1456;51.840;12.184;2023-01-09T05:13:43;1.67;;;1.30;;
2892;SDS011;1456;51.840;12.184;2023-01-09T05:16:11;2.13;;;1.70;;
2892;SDS011;1456;51.840;12.184;2023-01-09T05:18:37;0.30;;;0.30;;
2892;SDS011;1456;51.840;12.184;2023-01-09T05:21:05;0.50;;;0.37;;
2892;SDS011;1456;51.840;12.184;2023-01-09T05:23:31;0.60;;;0.60;;
2892;SDS011;1456;51.840;12.184;2023-01-09T05:25:56;0.40;;;0.40;;
2892;SDS011;1456;51.840;12.184;2023-01-09T05:28:23;0.50;;;0.50;;
2892;SDS011;1456;51.840;12.184;2023-01-09T05:30:49;1.27;;;1.17;;
2892;SDS011;1456;51.840;12.184;2023-01-09T05:33:14;0.40;;;0.40;;
2892;SDS011;1456;51.840;12.184;2023-01-09T05:35:40;0.30;;;0.30;;
2892;SDS011;1456;51.840;12.184;2023-01-09T05:38:06;1.87;;;1.77;;
2892;SDS011;1456;51.840;12.184;2023-01-09T05:40:31;1.33;;;0.80;;
2892;SDS011;1456;51.840;12.184;2023-01-09T05:42:57;1.17;;;1.10;;
2892;SDS011;1456;51.840;12.184;2023-01-09T05:45:22;0.60;;;0.50;;
2892;SDS011;1456;51.840;12.184;2023-01-09T05:47:49;0.97;;;0.97;;
2892;SDS011;1456;51.840;12.184;2023-01-09T05:50:15;0.80;;;0.73;;
2892;SDS011;1456;51.840;12.184;2023-01-09T05:52:41;1.50;;;1.50;;
2892;SDS011;1456;51.840;12.184;2023-01-09T05:55:08;1.90;;;1.30;;
2892;SDS011;1456;51.840;12.184;2023-01-09T05:57:37;0.30;;;0.30;;
2892;SDS011;1456;51.840;12.184;2023-01-09T06:00:05;0.93;;;0.90;;
2892;SDS011;1456;51.840;12.184;2023-01-09T06:02:32;4.27;;;1.83;;
2892;SDS011;1456;51.840;12.184;2023-01-09T06:04:58;0.73;;;0.73;;
2892;SDS011;1456;51.840;12.184;2023-01-09T06:07:24;1.27;;;1.20;;
2892;SDS011;1456;51.840;12.184;2023-01-09T06:09:50;0.40;;;0.40;;
2892;SDS011;1456;51.840;12.184;2023-01-09T06:12:15;0.60;;;0.60;;
2892;SDS011;1456;51.840;12.184;2023-01-09T06:14:41;1.90;;;1.80;;
2892;SDS011;1456;51.840;12.184;2023-01-09T06:17:07;1.73;;;1.60;;
2892;SDS011;1456;51.840;12.184;2023-01-09T06:19:35;0.80;;;0.63;;
2892;SDS011;1456;51.840;12.184;2023-01-09T06:22:00;1.00;;;1.00;;
2892;SDS011;1456;51.840;12.184;2023-01-09T06:24:26;1.07;;;1.07;;
2892;SDS011;1456;51.840;12.184;2023-01-09T06:26:52;0.77;;;0.77;;
2892;SDS011;1456;51.840;12.184;2023-01-09T06:29:18;0.40;;;0.40;;
2892;SDS011;1456;51.840;12.184;2023-01-09T06:31:44;3.47;;;3.27;;
2892;SDS011;1456;51.840;12.184;2023-01-09T06:34:10;0.30;;;0.30;;
2892;SDS011;1456;51.840;12.184;2023-01-09T06:36:36;0.50;;;0.50;;
2892;SDS011;1456;51.840;12.184;2023-01-09T06:39:02;0.80;;;0.60;;
2892;SDS011;1456;51.840;12.184;2023-01-09T06:41:28;2.70;;;2.60;;
2892;SDS011;1456;51.840;12.184;2023-01-09T06:43:53;1.30;;;1.30;;
2892;SDS011;1456;51.840;12.184;2023-01-09T06:46:19;0.40;;;0.40;;
2892;SDS011;1456;51.840;12.184;2023-01-09T06:48:45;0.57;;;0.57;;
2892;SDS011;1456;51.840;12.184;2023-01-09T06:51:12;0.30;;;0.30;;
2892;SDS011;1456;51.840;12.184;2023-01-09T06:53:39;1.33;;;0.90;;
2892;SDS011;1456;51.840;12.184;2023-01-09T06:56:05;2.30;;;1.00;;
2892;SDS011;1456;51.840;12.184;2023-01-09T06:58:30;1.70;;;0.60;;
2892;SDS011;1456;51.840;12.184;2023-01-09T07:00:59;0.40;;;0.40;;
2892;SDS011;1456;51.840;12.184;2023-01-09T07:03:25;0.30;;;0.30;;
2892;SDS011;1456;51.840;12.184;2023-01-09T07:05:53;0.60;;;0.60;;
2892;SDS011;1456;51.840;12.184;2023-01-09T07:08:18;0.50;;;0.50;;
2892;SDS011;1456;51.840;12.184;2023-01-09T07:10:45;0.40;;;0.40;;
2892;SDS011;1456;51.840;12.184;2023-01-09T07:13:12;0.30;;;0.20;;
2892;SDS011;1456;51.840;12.184;2023-01-09T07:15:38;0.43;;;0.43;;
2892;SDS011;1456;51.840;12.184;2023-01-09T07:18:05;2.77;;;1.00;;
2892;SDS011;1456;51.840;12.184;2023-01-09T07:20:31;0.63;;;0.60;;
2892;SDS011;1456;51.840;12.184;2023-01-09T07:22:57;0.37;;;0.37;;
2892;SDS011;1456;51.840;12.184;2023-01-09T07:25:22;0.90;;;0.90;;
2892;SDS011;1456;51.840;12.184;2023-01-09T07:27:48;1.03;;;1.03;;
2892;SDS011;1456;51.840;12.184;2023-01-09T07:30:18;0.30;;;0.20;;
2892;SDS011;1456;51.840;12.184;2023-01-09T07:32:45;0.83;;;0.83;;
2892;SDS011;1456;51.840;12.184;2023-01-09T07:35:10;1.10;;;1.10;;
2892;SDS011;1456;51.840;12.184;2023-01-09T07:37:37;0.30;;;0.20;;
2892;SDS011;1456;51.840;12.184;2023-01-09T07:40:05;1.23;;;0.80;;
2892;SDS011;1456;51.840;12.184;2023-01-09T07:42:31;0.20;;;0.20;;
2892;SDS011;1456;51.840;12.184;2023-01-09T07:44:57;2.50;;;0.90;;
2892;SDS011;1456;51.840;12.184;2023-01-09T07:47:24;0.20;;;0.20;;
2892;SDS011;1456;51.840;12.184;2023-01-09T07:49:50;1.00;;;1.00;;
2892;SDS011;1456;51.840;12.184;2023-01-09T07:52:16;0.40;;;0.40;;
2892;SDS011;1456;51.840;12.184;2023-01-09T07:54:43;2.00;;;1.80;;
2892;SDS011;1456;51.840;12.184;2023-01-09T07:57:09;0.20;;;0.20;;
2892;SDS011;1456;51.840;12.184;2023-01-09T07:59:35;0.60;;;0.60;;
2892;SDS011;1456;51.840;12.184;2023-01-09T08:02:05;0.77;;;0.77;;
2892;SDS011;1456;51.840;12.184;2023-01-09T08:04:31;0.30;;;0.30;;
2892;SDS011;1456;51.840;12.184;2023-01-09T08:06:57;0.20;;;0.20;;
2892;SDS011;1456;51.840;12.184;2023-01-09T08:09:23;0.30;;;0.30;;
2892;SDS011;1456;51.840;12.184;2023-01-09T08:11:49;0.30;;;0.30;;
2892;SDS011;1456;51.840;12.184;2023-01-09T08:14:16;0.80;;;0.80;;
2892;SDS011;1456;51.840;12.184;2023-01-09T08:16:44;0.50;;;0.50;;
2892;SDS011;1456;51.840;12.184;2023-01-09T08:19:11;2.33;;;2.23;;
2892;SDS011;1456;51.840;12.184;2023-01-09T08:21:38;0.40;;;0.40;;
2892;SDS011;1456;51.840;12.184;2023-01-09T08:24:05;1.07;;;0.40;;
2892;SDS011;1456;51.840;12.184;2023-01-09T08:26:31;0.27;;;0.20;;
2892;SDS011;1456;51.840;12.184;2023-01-09T08:28:57;1.30;;;1.30;;
2892;SDS011;1456;51.840;12.184;2023-01-09T08:31:22;0.67;;;0.60;;
2892;SDS011;1456;51.840;12.184;2023-01-09T08:33:48;0.40;;;0.40;;
2892;SDS011;1456;51.840;12.184;2023-01-09T08:36:15;0.50;;;0.50;;
2892;SDS011;1456;51.840;12.184;2023-01-09T08:38:40;0.43;;;0.43;;
2892;SDS011;1456;51.840;12.184;2023-01-09T08:41:06;0.47;;;0.47;;
2892;SDS011;1456;51.840;12.184;2023-01-09T08:43:52;1.40;;;1.30;;
2892;SDS011;1456;51.840;12.184;2023-01-09T08:46:37;0.97;;;0.87;;
2892;SDS011;1456;51.840;12.184;2023-01-09T08:49:22;1.27;;;1.17;;
2892;SDS011;1456;51.840;12.184;2023-01-09T08:51:49;0.50;;;0.50;;
2892;SDS011;1456;51.840;12.184;2023-01-09T08:54:15;0.60;;;0.60;;
2892;SDS011;1456;51.840;12.184;2023-01-09T08:56:41;0.40;;;0.40;;
2892;SDS011;1456;51.840;12.184;2023-01-09T08:59:09;0.50;;;0.50;;
2892;SDS011;1456;51.840;12.184;2023-01-09T09:01:35;0.30;;;0.30;;
2892;SDS011;1456;51.840;12.184;2023-01-09T09:04:05;0.43;;;0.43;;
2892;SDS011;1456;51.840;12.184;2023-01-09T09:06:32;1.53;;;0.50;;
2892;SDS011;1456;51.840;12.184;2023-01-09T09:08:58;1.50;;;0.50;;
2892;SDS011;1456;51.840;12.184;2023-01-09T09:11:34;0.30;;;0.20;;
2892;SDS011;1456;51.840;12.184;2023-01-09T09:14:00;1.10;;;1.10;;
2892;SDS011;1456;51.840;12.184;2023-01-09T09:16:46;2.07;;;0.93;;
2892;SDS011;1456;51.840;12.184;2023-01-09T09:19:13;10.40;;;0.60;;
2892;SDS011;1456;51.840;12.184;2023-01-09T09:21:38;0.20;;;0.20;;
2892;SDS011;1456;51.840;12.184;2023-01-09T09:24:05;0.30;;;0.20;;
2892;SDS011;1456;51.840;12.184;2023-01-09T09:26:31;0.40;;;0.40;;
2892;SDS011;1456;51.840;12.184;2023-01-09T09:28:57;0.60;;;0.50;;
2892;SDS011;1456;51.840;12.184;2023-01-09T09:31:23;1.00;;;0.73;;
2892;SDS011;1456;51.840;12.184;2023-01-09T09:33:51;0.87;;;0.87;;
2892;SDS011;1456;51.840;12.184;2023-01-09T09:36:16;1.17;;;0.30;;
2892;SDS011;1456;51.840;12.184;2023-01-09T09:38:42;0.30;;;0.30;;
2892;SDS011;1456;51.840;12.184;2023-01-09T09:49:46;0.30;;;0.30;;
2892;SDS011;1456;51.840;12.184;2023-01-09T09:52:19;0.90;;;0.90;;
2892;SDS011;1456;51.840;12.184;2023-01-09T09:55:32;0.30;;;0.23;;
2892;SDS011;1456;51.840;12.184;2023-01-09T09:58:01;0.40;;;0.30;;
2892;SDS011;1456;51.840;12.184;2023-01-09T10:00:36;0.30;;;0.30;;
2892;SDS011;1456;51.840;12.184;2023-01-09T10:03:10;0.30;;;0.30;;
2892;SDS011;1456;51.840;12.184;2023-01-09T10:05:46;0.40;;;0.30;;
2892;SDS011;1456;51.840;12.184;2023-01-09T10:08:29;0.30;;;0.30;;
2892;SDS011;1456;51.840;12.184;2023-01-09T10:14:03;0.47;;;0.47;;
2892;SDS011;1456;51.840;12.184;2023-01-09T10:24:55;0.50;;;0.50;;
2892;SDS011;1456;51.840;12.184;2023-01-09T10:38:34;0.60;;;0.60;;
2892;SDS011;1456;51.840;12.184;2023-01-09T10:43:49;0.80;;;0.37;;
2892;SDS011;1456;51.840;12.184;2023-01-09T10:46:25;0.30;;;0.30;;
2892;SDS011;1456;51.840;12.184;2023-01-09T10:48:57;8.57;;;0.47;;
2892;SDS011;1456;51.840;12.184;2023-01-09T10:51:28;0.30;;;0.20;;
2892;SDS011;1456;51.840;12.184;2023-01-09T10:54:14;0.30;;;0.30;;
2892;SDS011;1456;51.840;12.184;2023-01-09T10:56:55;0.30;;;0.30;;
2892;SDS011;1456;51.840;12.184;2023-01-09T10:59:24;0.30;;;0.30;;
2892;SDS011;1456;51.840;12.184;2023-01-09T11:01:51;0.30;;;0.30;;
2892;SDS011;1456;51.840;12.184;2023-01-09T11:06:50;0.37;;;0.37;;
2892;SDS011;1456;51.840;12.184;2023-01-09T11:09:21;0.40;;;0.40;;
2892;SDS011;1456;51.840;12.184;2023-01-09T11:11:46;0.47;;;0.47;;
2892;SDS011;1456;51.840;12.184;2023-01-09T11:14:16;0.47;;;0.47;;
2892;SDS011;1456;51.840;12.184;2023-01-09T11:16:55;0.30;;;0.30;;
2892;SDS011;1456;51.840;12.184;2023-01-09T11:19:23;0.60;;;0.60;;
2892;SDS011;1456;51.840;12.184;2023-01-09T11:22:04;0.50;;;0.50;;
2892;SDS011;1456;51.840;12.184;2023-01-09T11:24:40;2.20;;;1.43;;
2892;SDS011;1456;51.840;12.184;2023-01-09T11:29:37;0.60;;;0.60;;
2892;SDS011;1456;51.840;12.184;2023-01-09T11:32:04;0.70;;;0.70;;
2892;SDS011;1456;51.840;12.184;2023-01-09T11:34:31;0.70;;;0.70;;
2892;SDS011;1456;51.840;12.184;2023-01-09T11:37:09;0.90;;;0.90;;
2892;SDS011;1456;51.840;12.184;2023-01-09T11:39:39;1.00;;;1.00;;
2892;SDS011;1456;51.840;12.184;2023-01-09T11:42:19;1.17;;;1.17;;
2892;SDS011;1456;51.840;12.184;2023-01-09T11:45:15;2.67;;;2.47;;
2892;SDS011;1456;51.840;12.184;2023-01-09T11:47:43;2.50;;;2.50;;
2892;SDS011;1456;51.840;12.184;2023-01-09T11:50:20;2.03;;;1.93;;
2892;SDS011;1456;51.840;12.184;2023-01-09T11:53:39;1.70;;;1.70;;
2892;SDS011;1456;51.840;12.184;2023-01-09T11:55:33;1.80;;;1.80;;
2892;SDS011;1456;51.840;12.184;2023-01-09T11:57:59;2.20;;;2.20;;
2892;SDS011;1456;51.840;12.184;2023-01-09T12:00:26;2.50;;;2.50;;
2892;SDS011;1456;51.840;12.184;2023-01-09T12:03:36;3.07;;;3.07;;
2892;SDS011;1456;51.840;12.184;2023-01-09T12:05:54;3.20;;;3.20;;
2892;SDS011;1456;51.840;12.184;2023-01-09T12:08:51;4.30;;;4.20;;
2892;SDS011;1456;51.840;12.184;2023-01-09T12:11:23;3.30;;;3.30;;
2892;SDS011;1456;51.840;12.184;2023-01-09T12:14:02;3.70;;;3.70;;
2892;SDS011;1456;51.840;12.184;2023-01-09T12:30:38;3.83;;;3.83;;
2892;SDS011;1456;51.840;12.184;2023-01-09T12:55:17;3.30;;;3.30;;
2892;SDS011;1456;51.840;12.184;2023-01-09T12:57:48;3.47;;;3.47;;
2892;SDS011;1456;51.840;12.184;2023-01-09T13:00:17;3.03;;;3.03;;
2892;SDS011;1456;51.840;12.184;2023-01-09T13:02:49;3.17;;;3.17;;
2892;SDS011;1456;51.840;12.184;2023-01-09T13:05:22;2.90;;;2.90;;
2892;SDS011;1456;51.840;12.184;2023-01-09T13:07:59;3.53;;;3.27;;
2892;SDS011;1456;51.840;12.184;2023-01-09T13:10:43;2.27;;;2.27;;
2892;SDS011;1456;51.840;12.184;2023-01-09T13:13:16;2.10;;;2.10;;
2892;SDS011;1456;51.840;12.184;2023-01-09T13:15:52;2.30;;;2.30;;
2892;SDS011;1456;51.840;12.184;2023-01-09T13:21:05;2.67;;;2.67;;
2892;SDS011;1456;51.840;12.184;2023-01-09T13:23:35;2.33;;;2.33;;
2892;SDS011;1456;51.840;12.184;2023-01-09T13:26:06;2.90;;;2.80;;
2892;SDS011;1456;51.840;12.184;2023-01-09T13:28:55;2.23;;;2.23;;
2892;SDS011;1456;51.840;12.184;2023-01-09T13:34:22;9.00;;;2.50;;
2892;SDS011;1456;51.840;12.184;2023-01-09T13:36:54;3.60;;;3.60;;
2892;SDS011;1456;51.840;12.184;2023-01-09T13:39:22;3.77;;;3.77;;
2892;SDS011;1456;51.840;12.184;2023-01-09T13:41:52;5.37;;;5.17;;
2892;SDS011;1456;51.840;12.184;2023-01-09T13:44:39;4.73;;;4.73;;
2892;SDS011;1456;51.840;12.184;2023-01-09T13:47:13;5.07;;;5.07;;
2892;SDS011;1456;51.840;12.184;2023-01-09T13:54:59;4.90;;;4.90;;
2892;SDS011;1456;51.840;12.184;2023-01-09T13:57:30;4.20;;;4.20;;
2892;SDS011;1456;51.840;12.184;2023-01-09T14:05:14;4.47;;;4.47;;
2892;SDS011;1456;51.840;12.184;2023-01-09T14:08:01;5.63;;;5.53;;
2892;SDS011;1456;51.840;12.184;2023-01-09T14:13:03;4.77;;;4.77;;
2892;SDS011;1456;51.840;12.184;2023-01-09T14:15:38;4.23;;;4.23;;
2892;SDS011;1456;51.840;12.184;2023-01-09T14:18:18;4.10;;;4.10;;
2892;SDS011;1456;51.840;12.184;2023-01-09T14:20:53;3.80;;;3.80;;
2892;SDS011;1456;51.840;12.184;2023-01-09T14:25:58;2.57;;;2.57;;
2892;SDS011;1456;51.840;12.184;2023-01-09T14:28:32;2.53;;;2.53;;
2892;SDS011;1456;51.840;12.184;2023-01-09T14:36:07;1.60;;;1.60;;
2892;SDS011;1456;51.840;12.184;2023-01-09T14:41:29;1.17;;;1.17;;
2892;SDS011;1456;51.840;12.184;2023-01-09T14:46:59;1.20;;;1.20;;
2892;SDS011;1456;51.840;12.184;2023-01-09T14:49:36;1.10;;;1.10;;
2892;SDS011;1456;51.840;12.184;2023-01-09T14:52:21;0.80;;;0.80;;
2892;SDS011;1456;51.840;12.184;2023-01-09T14:54:57;0.90;;;0.90;;
2892;SDS011;1456;51.840;12.184;2023-01-09T14:57:26;1.07;;;1.07;;
2892;SDS011;1456;51.840;12.184;2023-01-09T15:02:30;0.90;;;0.90;;
2892;SDS011;1456;51.840;12.184;2023-01-09T15:05:02;0.80;;;0.80;;
2892;SDS011;1456;51.840;12.184;2023-01-09T15:07:33;1.40;;;1.30;;
2892;SDS011;1456;51.840;12.184;2023-01-09T15:10:05;0.77;;;0.77;;
2892;SDS011;1456;51.840;12.184;2023-01-09T15:12:38;0.90;;;0.90;;
2892;SDS011;1456;51.840;12.184;2023-01-09T15:15:05;1.50;;;1.43;;
2892;SDS011;1456;51.840;12.184;2023-01-09T15:17:36;0.93;;;0.93;;
2892;SDS011;1456;51.840;12.184;2023-01-09T15:20:04;0.80;;;0.80;;
2892;SDS011;1456;51.840;12.184;2023-01-09T15:22:32;0.60;;;0.60;;
2892;SDS011;1456;51.840;12.184;2023-01-09T15:25:13;1.23;;;1.23;;
2892;SDS011;1456;51.840;12.184;2023-01-09T15:27:55;0.47;;;0.47;;
2892;SDS011;1456;51.840;12.184;2023-01-09T15:30:32;0.70;;;0.70;;
2892;SDS011;1456;51.840;12.184;2023-01-09T15:32:59;0.60;;;0.60;;
2892;SDS011;1456;51.840;12.184;2023-01-09T15:35:30;0.60;;;0.60;;
2892;SDS011;1456;51.840;12.184;2023-01-09T15:37:57;0.87;;;0.87;;
2892;SDS011;1456;51.840;12.184;2023-01-09T15:40:25;0.80;;;0.80;;
2892;SDS011;1456;51.840;12.184;2023-01-09T15:42:56;0.60;;;0.60;;
2892;SDS011;1456;51.840;12.184;2023-01-09T15:47:53;0.80;;;0.80;;
2892;SDS011;1456;51.840;12.184;2023-01-09T15:50:37;1.00;;;1.00;;
2892;SDS011;1456;51.840;12.184;2023-01-09T15:53:04;0.90;;;0.90;;
2892;SDS011;1456;51.840;12.184;2023-01-09T15:55:39;1.63;;;1.53;;
2892;SDS011;1456;51.840;12.184;2023-01-09T15:58:28;0.60;;;0.60;;
2892;SDS011;1456;51.840;12.184;2023-01-09T16:00:59;0.60;;;0.60;;
2892;SDS011;1456;51.840;12.184;2023-01-09T16:03:30;0.70;;;0.70;;
2892;SDS011;1456;51.840;12.184;2023-01-09T16:06:11;1.17;;;1.17;;
2892;SDS011;1456;51.840;12.184;2023-01-09T16:08:46;1.37;;;1.37;;
2892;SDS011;1456;51.840;12.184;2023-01-09T16:16:49;0.57;;;0.57;;
2892;SDS011;1456;51.840;12.184;2023-01-09T16:19:29;0.73;;;0.73;;
2892;SDS011;1456;51.840;12.184;2023-01-09T16:21:59;1.30;;;1.30;;
2892;SDS011;1456;51.840;12.184;2023-01-09T16:24:33;0.60;;;0.60;;
2892;SDS011;1456;51.840;12.184;2023-01-09T16:29:37;0.70;;;0.70;;
2892;SDS011;1456;51.840;12.184;2023-01-09T16:32:13;0.60;;;0.60;;
2892;SDS011;1456;51.840;12.184;2023-01-09T16:34:44;0.70;;;0.70;;
2892;SDS011;1456;51.840;12.184;2023-01-09T16:37:16;0.50;;;0.50;;
2892;SDS011;1456;51.840;12.184;2023-01-09T16:39:42;0.40;;;0.40;;
2892;SDS011;1456;51.840;12.184;2023-01-09T16:42:29;0.50;;;0.50;;
2892;SDS011;1456;51.840;12.184;2023-01-09T16:45:13;0.50;;;0.50;;
2892;SDS011;1456;51.840;12.184;2023-01-09T16:47:38;0.50;;;0.50;;
2892;SDS011;1456;51.840;12.184;2023-01-09T16:50:04;0.50;;;0.50;;
2892;SDS011;1456;51.840;12.184;2023-01-09T16:52:31;1.00;;;1.00;;
2892;SDS011;1456;51.840;12.184;2023-01-09T16:54:57;0.40;;;0.40;;
2892;SDS011;1456;51.840;12.184;2023-01-09T16:57:22;1.40;;;1.03;;
2892;SDS011;1456;51.840;12.184;2023-01-09T16:59:48;0.40;;;0.40;;
2892;SDS011;1456;51.840;12.184;2023-01-09T17:02:15;0.63;;;0.50;;
2892;SDS011;1456;51.840;12.184;2023-01-09T17:04:42;0.80;;;0.80;;
2892;SDS011;1456;51.840;12.184;2023-01-09T17:07:10;1.37;;;1.00;;
2892;SDS011;1456;51.840;12.184;2023-01-09T17:09:41;2.07;;;2.07;;
2892;SDS011;1456;51.840;12.184;2023-01-09T17:12:17;2.73;;;2.57;;
2892;SDS011;1456;51.840;12.184;2023-01-09T17:14:46;2.33;;;2.13;;
2892;SDS011;1456;51.840;12.184;2023-01-09T17:17:12;3.30;;;1.90;;
2892;SDS011;1456;51.840;12.184;2023-01-09T17:19:38;4.07;;;2.70;;
2892;SDS011;1456;51.840;12.184;2023-01-09T17:22:04;1.63;;;1.47;;
2892;SDS011;1456;51.840;12.184;2023-01-09T17:24:30;6.23;;;3.70;;
2892;SDS011;1456;51.840;12.184;2023-01-09T17:27:15;1.00;;;1.00;;
2892;SDS011;1456;51.840;12.184;2023-01-09T17:30:07;0.40;;;0.40;;
2892;SDS011;1456;51.840;12.184;2023-01-09T17:32:33;0.30;;;0.30;;
2892;SDS011;1456;51.840;12.184;2023-01-09T17:34:59;0.40;;;0.30;;
2892;SDS011;1456;51.840;12.184;2023-01-09T17:37:25;0.30;;;0.30;;
2892;SDS011;1456;51.840;12.184;2023-01-09T17:39:51;0.30;;;0.20;;
2892;SDS011;1456;51.840;12.184;2023-01-09T17:42:17;0.47;;;0.47;;
2892;SDS011;1456;51.840;12.184;2023-01-09T17:44:42;0.53;;;0.53;;
2892;SDS011;1456;51.840;12.184;2023-01-09T17:47:14;0.57;;;0.57;;
2892;SDS011;1456;51.840;12.184;2023-01-09T17:49:40;0.90;;;0.90;;